Valley City, Illinois
Current Conditions -  °F | °C
As of 6:55 AM on Friday 24 Oct 2014 (Local Time) from KPPQ Reporting Station
Moderate Fog Moderate Fog  
Wind Chill: 56°   Ceiling: 200
Heat Index: 56°   Visibility: 0.5mi
Dew Point: 54°   Wind: 0mph
Humidity: 94%   Direction: NA
Pressure: 30.09"   Gusts: NA
Location:  39.7046°N, 90.7176°W
Report Text: KPPQ 241155Z AUTO 00000KT 1/2SM FG OVC002 13/12 A3009 RMK AO2 70001 T01310121 10132 20115
Loading
Personal Weather Stations






























Interactive Weather Map New forecast layout! Learn more

10-Day Weather Forecast

Advertisements
Track Severe Weather on mobile